Time;durP1;ratioP1;P1;durP2;ratioP2;P2;SDS_P1;SDS_P2;PMS_P1;PMS_P2;Temp;Humidity;BMP_temperature;BMP_pressure;BME280_temperature;BME280_humidity;BME280_pressure;Samples;Min_cycle;Max_cycle;Signal;HPM_P1;HPM_P2
2021/05/29 00:01:47;;;;;;;8.73;4.30;;;11.20;75.30;;;;;;4995277;28;20479;-80
2021/05/29 00:04:13;;;;;;;5.63;3.83;;;11.00;75.70;;;;;;4980968;28;20035;-80
2021/05/29 00:06:38;;;;;;;7.88;4.30;;;11.00;76.10;;;;;;4982110;28;20037;-80
2021/05/29 00:09:04;;;;;;;3.92;3.35;;;11.00;75.60;;;;;;4980168;28;20038;-80
2021/05/29 00:11:29;;;;;;;7.05;4.70;;;10.80;76.30;;;;;;4973007;28;20541;-80
2021/05/29 00:13:55;;;;;;;6.88;4.43;;;10.60;78.00;;;;;;4971104;28;20030;-80
2021/05/29 00:16:21;;;;;;;7.75;5.40;;;10.50;78.70;;;;;;4989831;28;20102;-80
2021/05/29 00:18:46;;;;;;;9.25;5.15;;;10.50;78.80;;;;;;4964568;28;20042;-80
2021/05/29 00:21:11;;;;;;;5.05;3.22;;;10.50;78.90;;;;;;4980774;28;20105;-80
2021/05/29 00:23:37;;;;;;;13.40;3.70;;;10.70;77.70;;;;;;4989449;28;20036;-80
2021/05/29 00:26:03;;;;;;;5.40;3.33;;;10.70;76.30;;;;;;4975083;28;20045;-80
2021/05/29 00:28:28;;;;;;;9.00;4.85;;;10.60;75.70;;;;;;4981579;28;20382;-80
2021/05/29 00:30:54;;;;;;;11.10;5.43;;;10.40;78.20;;;;;;4981610;28;20033;-80
2021/05/29 00:33:19;;;;;;;8.70;5.20;;;10.30;79.20;;;;;;4980586;28;20134;-80
2021/05/29 00:35:45;;;;;;;4.45;3.50;;;10.30;78.80;;;;;;4968023;28;20035;-80
2021/05/29 00:38:10;;;;;;;6.70;4.32;;;10.30;78.50;;;;;;4959002;28;20035;-80
2021/05/29 00:40:36;;;;;;;7.53;4.47;;;10.40;78.30;;;;;;4980161;28;20492;-79
2021/05/29 00:43:02;;;;;;;6.60;4.25;;;10.20;79.10;;;;;;4994863;28;20030;-80
2021/05/29 00:45:28;;;;;;;6.15;4.22;;;10.20;78.70;;;;;;4980765;28;20033;-80
2021/05/29 00:47:54;;;;;;;5.72;4.50;;;10.10;79.50;;;;;;4993326;28;20042;-80
2021/05/29 00:50:19;;;;;;;7.60;4.15;;;10.10;79.60;;;;;;4981060;28;20026;-80
2021/05/29 00:52:46;;;;;;;5.13;3.58;;;10.30;78.90;;;;;;4992597;28;20041;-80
2021/05/29 00:55:14;;;;;;;5.50;4.03;;;10.30;78.20;;;;;;4977995;28;20383;-80
2021/05/29 00:57:41;;;;;;;5.20;3.35;;;10.00;78.50;;;;;;4971255;28;20104;-80
2021/05/29 01:00:07;;;;;;;5.85;3.75;;;10.00;79.40;;;;;;4980024;28;20121;-80
2021/05/29 01:02:33;;;;;;;4.28;3.58;;;10.00;78.70;;;;;;4978376;28;20393;-79
2021/05/29 01:04:59;;;;;;;6.28;3.53;;;9.90;80.30;;;;;;4980791;28;20077;-80
2021/05/29 01:07:24;;;;;;;3.97;2.85;;;10.00;79.20;;;;;;4993568;28;20080;-79
2021/05/29 01:09:50;;;;;;;5.38;3.20;;;10.10;79.30;;;;;;4978141;28;20038;-79
2021/05/29 01:12:18;;;;;;;4.18;3.13;;;10.10;79.00;;;;;;4977395;28;20034;-79
2021/05/29 01:14:52;;;;;;;4.60;3.67;;;9.90;79.60;;;;;;4993225;28;20121;-80
2021/05/29 01:17:17;;;;;;;6.75;4.57;;;9.70;79.90;;;;;;4960776;28;20038;-80
2021/05/29 01:19:43;;;;;;;6.95;5.30;;;9.50;81.20;;;;;;4993279;28;20038;-79
2021/05/29 01:22:09;;;;;;;8.45;4.97;;;9.40;81.80;;;;;;4976519;28;20389;-79
2021/05/29 01:24:35;;;;;;;8.23;4.78;;;9.40;82.10;;;;;;4977296;28;20116;-79
2021/05/29 01:27:01;;;;;;;8.30;4.95;;;9.00;83.00;;;;;;4964568;28;20061;-79
2021/05/29 01:29:28;;;;;;;8.60;4.75;;;8.70;84.90;;;;;;4976130;28;20026;-79
2021/05/29 01:32:05;;;;;;;8.98;5.63;;;8.70;86.30;;;;;;4980060;28;20069;-79
2021/05/29 01:34:35;;;;;;;8.45;5.60;;;8.60;86.50;;;;;;4983783;28;20045;-80
2021/05/29 01:37:04;;;;;;;6.72;5.55;;;8.60;88.10;;;;;;4981391;28;20053;-79
2021/05/29 01:39:30;;;;;;;9.25;6.35;;;8.70;87.00;;;;;;4963756;28;20453;-79
2021/05/29 01:41:56;;;;;;;8.95;6.00;;;8.80;86.60;;;;;;4971945;28;20053;-80
2021/05/29 01:44:22;;;;;;;6.95;4.38;;;8.70;87.40;;;;;;4977538;28;20081;-80
2021/05/29 01:46:49;;;;;;;5.95;5.35;;;8.90;86.00;;;;;;4994026;28;20042;-79
2021/05/29 01:49:15;;;;;;;5.13;4.30;;;9.00;85.00;;;;;;4971731;28;20042;-80
2021/05/29 01:51:40;;;;;;;9.27;5.97;;;9.10;84.40;;;;;;4975031;28;20265;-79
2021/05/29 01:54:06;;;;;;;8.77;6.13;;;9.00;85.40;;;;;;4996802;28;20424;-79
2021/05/29 01:56:31;;;;;;;8.48;6.50;;;8.80;85.50;;;;;;4975226;28;20033;-79
2021/05/29 01:58:57;;;;;;;11.98;6.90;;;8.60;87.00;;;;;;4975785;28;20041;-80
2021/05/29 02:01:22;;;;;;;8.18;6.10;;;8.40;88.20;;;;;;4967415;28;20034;-79
2021/05/29 02:03:48;;;;;;;7.90;5.93;;;8.30;89.60;;;;;;4962152;28;20064;-79
2021/05/29 02:06:14;;;;;;;11.38;7.07;;;8.20;90.30;;;;;;4994224;28;20032;-80
2021/05/29 02:08:39;;;;;;;9.88;6.38;;;8.20;90.60;;;;;;4961468;28;20034;-80
2021/05/29 02:11:05;;;;;;;9.88;6.63;;;8.10;90.60;;;;;;4966278;28;20077;-79
2021/05/29 02:13:32;;;;;;;6.78;6.07;;;8.10;91.00;;;;;;4972556;28;20041;-79
2021/05/29 02:15:58;;;;;;;10.57;7.07;;;8.10;91.00;;;;;;4965654;28;20030;-79
2021/05/29 02:18:23;;;;;;;9.60;6.65;;;8.40;90.40;;;;;;4980282;28;20073;-80
2021/05/29 02:21:01;;;;;;;11.02;7.40;;;8.40;90.40;;;;;;4981131;28;20038;-79
2021/05/29 02:23:28;;;;;;;9.10;6.68;;;8.20;91.00;;;;;;4984487;28;20038;-79
2021/05/29 02:25:56;;;;;;;11.88;7.25;;;8.40;90.10;;;;;;4994756;28;20034;-80
2021/05/29 02:28:22;;;;;;;9.30;6.65;;;8.40;90.10;;;;;;4994421;28;20056;-80
2021/05/29 02:30:48;;;;;;;14.68;6.95;;;8.30;90.10;;;;;;4996841;28;20041;-79
2021/05/29 02:33:13;;;;;;;10.55;7.30;;;8.30;90.60;;;;;;4964372;28;20057;-80
2021/05/29 02:35:39;;;;;;;9.25;7.25;;;8.40;89.60;;;;;;4978146;28;20485;-80
2021/05/29 02:38:04;;;;;;;9.25;7.15;;;8.40;89.20;;;;;;4996927;28;20022;-80
2021/05/29 02:40:30;;;;;;;9.70;7.82;;;8.30;90.20;;;;;;4983047;28;21971;-80
2021/05/29 02:42:55;;;;;;;13.05;7.25;;;8.30;89.60;;;;;;4979169;28;20029;-80
2021/05/29 02:45:21;;;;;;;11.88;6.93;;;8.20;89.80;;;;;;4996531;28;20057;-80
2021/05/29 02:47:47;;;;;;;8.18;6.13;;;8.30;89.60;;;;;;4965279;28;20038;-80
2021/05/29 02:50:13;;;;;;;9.32;6.90;;;8.20;89.00;;;;;;4977033;28;20022;-80
2021/05/29 02:52:39;;;;;;;10.82;6.88;;;8.10;89.50;;;;;;4979797;28;20489;-80
2021/05/29 02:55:05;;;;;;;12.98;6.85;;;8.10;89.50;;;;;;4986072;28;20117;-80
2021/05/29 02:57:31;;;;;;;11.32;7.10;;;8.10;89.20;;;;;;4965937;28;20038;-80
2021/05/29 02:59:56;;;;;;;10.15;6.95;;;8.00;89.40;;;;;;4984657;28;20038;-80
2021/05/29 03:02:22;;;;;;;10.77;7.40;;;8.00;89.40;;;;;;4962043;28;20023;-80
2021/05/29 03:04:47;;;;;;;14.55;6.80;;;8.00;89.30;;;;;;4984543;28;20409;-79
2021/05/29 03:07:13;;;;;;;10.15;7.13;;;7.90;89.70;;;;;;4984114;28;20559;-80
2021/05/29 03:09:38;;;;;;;6.13;5.00;;;7.90;89.70;;;;;;4979205;28;20409;-80
2021/05/29 03:12:04;;;;;;;6.72;4.40;;;7.90;89.30;;;;;;4979985;28;20055;-79
2021/05/29 03:14:30;;;;;;;6.53;4.82;;;8.00;89.10;;;;;;4995980;28;20528;-80
2021/05/29 03:16:55;;;;;;;10.18;6.35;;;8.00;88.80;;;;;;4967317;28;20071;-80
2021/05/29 03:19:21;;;;;;;6.68;4.15;;;7.90;88.70;;;;;;4963080;28;20084;-80
2021/05/29 03:21:46;;;;;;;8.48;5.53;;;7.80;89.20;;;;;;4968590;28;20287;-79
2021/05/29 03:24:12;;;;;;;10.65;6.20;;;7.80;89.20;;;;;;4979779;28;20030;-80
2021/05/29 03:26:37;;;;;;;8.00;6.45;;;7.70;89.20;;;;;;4984003;28;20401;-80
2021/05/29 03:29:03;;;;;;;7.88;5.90;;;7.60;89.30;;;;;;4979900;28;20039;-80
2021/05/29 03:31:29;;;;;;;6.90;5.47;;;7.60;89.80;;;;;;4976647;28;20034;-80
2021/05/29 03:33:55;;;;;;;6.75;5.97;;;7.60;89.80;;;;;;4964818;28;20042;-80
2021/05/29 03:36:20;;;;;;;8.95;6.78;;;7.60;89.90;;;;;;4978024;28;20060;-80
2021/05/29 03:38:46;;;;;;;10.05;6.70;;;7.50;89.80;;;;;;4978494;28;20037;-80
2021/05/29 03:41:11;;;;;;;10.88;6.70;;;7.40;90.60;;;;;;4993236;28;20030;-80
2021/05/29 03:43:37;;;;;;;7.85;6.25;;;7.40;90.60;;;;;;4994873;28;20030;-79
2021/05/29 03:46:03;;;;;;;7.88;6.45;;;7.10;90.80;;;;;;4981196;28;20432;-79
2021/05/29 03:48:28;;;;;;;10.18;7.28;;;7.10;91.30;;;;;;4987671;28;20467;-80
2021/05/29 03:50:54;;;;;;;8.18;6.35;;;7.20;91.20;;;;;;4994682;28;20039;-80
2021/05/29 03:53:19;;;;;;;14.15;7.47;;;7.20;90.90;;;;;;4949535;28;20077;-80
2021/05/29 03:55:45;;;;;;;14.90;7.38;;;7.30;91.00;;;;;;4992673;28;20038;-78
2021/05/29 03:58:10;;;;;;;9.40;7.50;;;7.30;91.10;;;;;;4953884;28;20037;-78
2021/05/29 04:00:36;;;;;;;15.32;8.00;;;7.20;91.40;;;;;;4959446;28;20058;-78
2021/05/29 04:03:02;;;;;;;15.00;7.47;;;7.10;92.10;;;;;;4964131;28;20037;-79
2021/05/29 04:05:28;;;;;;;13.82;8.18;;;7.10;92.80;;;;;;4975827;28;20168;-78
2021/05/29 04:07:54;;;;;;;11.98;8.80;;;7.20;93.10;;;;;;4990148;28;20049;-79
2021/05/29 04:10:25;;;;;;;16.88;7.60;;;7.40;92.50;;;;;;4986089;28;20034;-79
2021/05/29 04:12:51;;;;;;;15.30;8.63;;;7.60;91.40;;;;;;4982830;28;20100;-79
2021/05/29 04:15:17;;;;;;;10.07;8.10;;;7.70;92.00;;;;;;4995493;28;20555;-78
2021/05/29 04:17:43;;;;;;;11.73;8.10;;;7.80;90.80;;;;;;4984755;28;20037;-80
2021/05/29 04:20:09;;;;;;;14.18;9.95;;;7.90;90.50;;;;;;4994117;28;20042;-80
2021/05/29 04:22:35;;;;;;;15.30;10.25;;;8.10;91.60;;;;;;4960980;28;20507;-79
2021/05/29 04:25:01;;;;;;;13.02;10.27;;;8.20;92.30;;;;;;4987011;28;20045;-80
2021/05/29 04:27:27;;;;;;;17.50;10.32;;;8.30;92.60;;;;;;4987265;28;20034;-80
2021/05/29 04:29:54;;;;;;;14.95;11.48;;;8.50;92.80;;;;;;4963629;28;20039;-80
2021/05/29 04:32:19;;;;;;;14.65;10.90;;;8.60;93.00;;;;;;4963260;28;20034;-80
2021/05/29 04:34:45;;;;;;;15.27;10.57;;;8.70;93.10;;;;;;4992597;28;20481;-80
2021/05/29 04:37:13;;;;;;;17.92;10.75;;;8.90;93.10;;;;;;4963341;28;20448;-80
2021/05/29 04:39:38;;;;;;;17.70;11.52;;;9.10;93.10;;;;;;4993725;28;20169;-80
2021/05/29 04:42:04;;;;;;;18.63;13.07;;;9.30;92.80;;;;;;4981154;28;20113;-80
2021/05/29 04:44:29;;;;;;;16.25;12.40;;;9.50;92.00;;;;;;4982668;28;20034;-79
2021/05/29 04:47:00;;;;;;;17.00;11.10;;;9.70;92.30;;;;;;4975192;28;20034;-79
2021/05/29 04:49:26;;;;;;;15.38;9.82;;;9.80;92.00;;;;;;4993042;28;20083;-79
2021/05/29 04:51:52;;;;;;;13.93;9.57;;;10.10;91.20;;;;;;4981388;28;20112;-79
2021/05/29 04:54:17;;;;;;;13.15;8.90;;;10.30;91.30;;;;;;4959420;28;20496;-80
2021/05/29 04:56:43;;;;;;;9.85;8.10;;;10.50;91.20;;;;;;4994666;28;20110;-79
2021/05/29 04:59:09;;;;;;;12.63;8.60;;;10.70;91.20;;;;;;4978596;28;20176;-79
2021/05/29 05:01:34;;;;;;;9.27;7.30;;;10.90;91.20;;;;;;4983750;28;20026;-80
2021/05/29 05:04:00;;;;;;;10.15;6.38;;;11.10;91.40;;;;;;4970452;28;20154;-80
2021/05/29 05:06:26;;;;;;;7.97;6.07;;;11.30;91.30;;;;;;4976971;28;20485;-80
2021/05/29 05:08:52;;;;;;;7.60;6.35;;;11.50;91.30;;;;;;4961751;28;20084;-80
2021/05/29 05:11:17;;;;;;;12.77;6.25;;;11.70;91.30;;;;;;4981538;28;20037;-80
2021/05/29 05:13:43;;;;;;;8.98;6.28;;;12.00;91.30;;;;;;4967037;28;20045;-79
2021/05/29 05:16:09;;;;;;;9.93;5.75;;;12.20;91.40;;;;;;4988004;28;20109;-80
2021/05/29 05:18:34;;;;;;;8.60;6.68;;;12.40;91.20;;;;;;4963049;28;20050;-80
2021/05/29 05:21:00;;;;;;;8.35;6.32;;;12.60;91.20;;;;;;4977876;28;20029;-80
2021/05/29 05:23:25;;;;;;;7.35;5.45;;;12.80;91.20;;;;;;4963784;28;20030;-80
2021/05/29 05:25:51;;;;;;;5.80;5.00;;;13.10;91.40;;;;;;4986611;28;20031;-80
2021/05/29 05:28:25;;;;;;;6.68;5.65;;;13.30;91.40;;;;;;4971981;28;20026;-80
2021/05/29 05:30:51;;;;;;;9.55;6.63;;;13.60;91.40;;;;;;4973575;28;20018;-80
2021/05/29 05:33:18;;;;;;;8.48;6.50;;;13.80;91.40;;;;;;4985669;28;20593;-79
2021/05/29 05:35:43;;;;;;;8.80;6.82;;;14.10;91.10;;;;;;4988826;28;20038;-80
2021/05/29 05:38:10;;;;;;;8.93;6.47;;;14.30;91.30;;;;;;4969004;28;20365;-79
2021/05/29 05:40:36;;;;;;;10.18;7.07;;;14.60;91.30;;;;;;4982749;28;20113;-80
2021/05/29 05:43:01;;;;;;;9.80;6.57;;;14.80;90.90;;;;;;5001544;28;20105;-80
2021/05/29 05:45:27;;;;;;;8.73;6.68;;;15.00;90.60;;;;;;4972046;28;20046;-79
2021/05/29 05:47:52;;;;;;;7.35;6.32;;;15.30;91.10;;;;;;4981725;28;20034;-79
2021/05/29 05:50:18;;;;;;;7.93;7.13;;;15.50;90.90;;;;;;4977602;28;20065;-80
2021/05/29 05:52:43;;;;;;;10.70;7.28;;;15.70;90.60;;;;;;4991728;28;20048;-79
2021/05/29 05:55:10;;;;;;;7.97;6.50;;;15.80;90.80;;;;;;4977170;28;20057;-79
2021/05/29 05:57:36;;;;;;;10.82;7.18;;;16.10;90.20;;;;;;4996114;28;20184;-80
2021/05/29 06:00:03;;;;;;;8.55;6.97;;;16.30;90.60;;;;;;4999646;28;20565;-80
2021/05/29 06:02:29;;;;;;;12.35;6.88;;;16.60;90.60;;;;;;4994217;28;20560;-79
2021/05/29 06:04:56;;;;;;;10.30;7.60;;;16.80;90.20;;;;;;4983889;28;20060;-80
2021/05/29 06:07:22;;;;;;;13.60;7.38;;;17.00;90.10;;;;;;4965495;28;20060;-80
2021/05/29 06:09:47;;;;;;;8.27;6.30;;;17.20;90.20;;;;;;4972222;28;20030;-80
2021/05/29 06:12:13;;;;;;;8.48;6.88;;;17.40;89.00;;;;;;5003573;28;20378;-79
2021/05/29 06:20:11;;;;;;;10.48;6.85;;;17.90;88.90;;;;;;4980237;28;20500;-80
2021/05/29 06:22:36;;;;;;;10.43;6.70;;;18.00;87.40;;;;;;4985058;28;20091;-81
2021/05/29 06:25:03;;;;;;;9.93;6.80;;;18.40;88.40;;;;;;4995707;28;20049;-80
2021/05/29 06:27:28;;;;;;;8.57;6.88;;;18.60;87.70;;;;;;4990263;28;20113;-80
2021/05/29 06:29:54;;;;;;;9.75;6.72;;;18.70;87.20;;;;;;4987704;28;20153;-80
2021/05/29 06:32:19;;;;;;;6.93;6.15;;;19.00;86.60;;;;;;4982312;28;20030;-81
2021/05/29 06:34:45;;;;;;;9.15;6.47;;;19.20;85.90;;;;;;4997468;28;20030;-81
2021/05/29 06:37:10;;;;;;;9.77;5.90;;;19.40;85.30;;;;;;4968508;28;20095;-81
2021/05/29 06:39:37;;;;;;;7.40;5.85;;;19.60;84.60;;;;;;4980270;28;20069;-81
2021/05/29 06:42:03;;;;;;;7.38;6.68;;;19.70;83.60;;;;;;4996589;28;20026;-81
2021/05/29 06:44:28;;;;;;;13.63;7.13;;;19.90;84.20;;;;;;4982086;28;20030;-81
2021/05/29 06:46:54;;;;;;;7.90;6.03;;;20.10;83.30;;;;;;4992915;28;20401;-81
2021/05/29 06:49:21;;;;;;;9.15;6.30;;;20.30;81.50;;;;;;4980699;28;20504;-81
2021/05/29 06:59:49;;;;;;;12.45;5.97;;;21.00;80.20;;;;;;4988094;28;20373;-81
2021/05/29 07:02:15;;;;;;;7.00;5.07;;;21.20;78.80;;;;;;4997408;28;20030;-81
2021/05/29 07:04:40;;;;;;;8.30;5.88;;;21.40;78.70;;;;;;4982256;28;20401;-81
2021/05/29 07:07:06;;;;;;;7.18;6.45;;;21.50;77.90;;;;;;4976324;28;20046;-81
2021/05/29 07:09:32;;;;;;;11.02;6.35;;;21.80;77.00;;;;;;4978826;28;20096;-81
2021/05/29 07:11:58;;;;;;;10.70;5.50;;;21.80;76.10;;;;;;4970320;28;20429;-81
2021/05/29 07:14:23;;;;;;;10.02;7.25;;;22.00;75.90;;;;;;4987831;28;20061;-81
2021/05/29 07:16:51;;;;;;;10.52;6.20;;;22.10;74.30;;;;;;4981292;28;20030;-82
2021/05/29 07:19:18;;;;;;;8.93;6.55;;;22.20;74.10;;;;;;4968914;28;20117;-82
2021/05/29 07:21:44;;;;;;;10.30;6.68;;;22.40;72.70;;;;;;4988145;28;20389;-82
2021/05/29 07:24:10;;;;;;;9.75;6.40;;;22.80;71.70;;;;;;5001989;28;20037;-82
2021/05/29 07:26:35;;;;;;;10.98;7.10;;;22.70;71.60;;;;;;4966575;28;20437;-80
2021/05/29 07:29:01;;;;;;;8.25;6.30;;;22.60;70.90;;;;;;4998238;28;20038;-80
2021/05/29 07:31:26;;;;;;;6.93;5.93;;;22.70;72.90;;;;;;4967845;28;20050;-80
2021/05/29 07:33:54;;;;;;;8.43;5.65;;;22.80;70.50;;;;;;4966768;28;20040;-80
2021/05/29 07:36:20;;;;;;;8.13;6.18;;;22.70;68.40;;;;;;4964698;28;20035;-80
2021/05/29 07:38:46;;;;;;;9.45;6.25;;;22.90;68.00;;;;;;4961407;28;20030;-80
2021/05/29 07:41:11;;;;;;;9.95;6.55;;;23.00;68.90;;;;;;4991724;28;20034;-79
2021/05/29 07:43:37;;;;;;;7.28;6.30;;;23.10;68.30;;;;;;4993026;28;20456;-79
2021/05/29 07:46:03;;;;;;;9.48;6.90;;;23.00;68.80;;;;;;4964996;28;20046;-79
2021/05/29 07:48:29;;;;;;;6.70;5.40;;;23.20;65.50;;;;;;5000667;28;20512;-79
2021/05/29 07:50:59;;;;;;;11.32;6.97;;;23.20;66.60;;;;;;4995457;28;20037;-79
2021/05/29 07:53:25;;;;;;;8.18;6.50;;;23.40;65.90;;;;;;4984820;28;20555;-79
2021/05/29 07:55:51;;;;;;;11.75;7.05;;;23.30;68.00;;;;;;4962523;28;20485;-79
2021/05/29 07:58:16;;;;;;;11.15;7.70;;;23.50;66.70;;;;;;4994093;28;20073;-80
2021/05/29 08:00:44;;;;;;;10.68;7.75;;;23.60;64.60;;;;;;4973758;28;21029;-80
2021/05/29 08:03:10;;;;;;;9.07;7.65;;;23.60;64.40;;;;;;4985847;28;20088;-79
2021/05/29 08:05:35;;;;;;;10.23;9.00;;;23.70;62.60;;;;;;4972262;28;20034;-79
2021/05/29 08:08:01;;;;;;;10.18;7.75;;;23.60;64.20;;;;;;4992003;28;20088;-80
2021/05/29 08:10:27;;;;;;;11.18;7.82;;;23.70;64.30;;;;;;4950171;28;20035;-80
2021/05/29 08:12:52;;;;;;;11.45;7.57;;;24.00;63.70;;;;;;4990755;28;20039;-80
2021/05/29 08:15:18;;;;;;;11.23;8.35;;;23.90;62.90;;;;;;4961030;28;20054;-80
2021/05/29 08:17:43;;;;;;;9.98;7.47;;;23.90;64.00;;;;;;4988212;28;20087;-80
2021/05/29 08:20:10;;;;;;;9.85;7.82;;;24.00;64.10;;;;;;5000528;28;20022;-80
2021/05/29 08:22:35;;;;;;;11.95;7.57;;;24.00;63.80;;;;;;4997429;28;20512;-80
2021/05/29 08:25:01;;;;;;;11.48;7.95;;;23.90;64.30;;;;;;4988724;28;20042;-80
2021/05/29 08:27:26;;;;;;;9.02;6.70;;;23.70;62.50;;;;;;4974524;28;20036;-81
2021/05/29 08:29:52;;;;;;;14.20;9.30;;;23.90;63.50;;;;;;4986520;28;20389;-80
2021/05/29 08:32:17;;;;;;;14.32;9.13;;;24.20;63.40;;;;;;4984675;28;20030;-80
2021/05/29 08:34:43;;;;;;;12.80;8.50;;;24.20;61.50;;;;;;4995379;28;20030;-79
2021/05/29 08:37:09;;;;;;;9.25;7.53;;;24.10;59.60;;;;;;4993539;28;20045;-80
2021/05/29 08:39:34;;;;;;;7.75;6.00;;;23.90;59.00;;;;;;4984518;28;20054;-79
2021/05/29 08:42:00;;;;;;;7.25;5.90;;;23.90;61.20;;;;;;5000568;28;20026;-80
2021/05/29 08:44:26;;;;;;;9.52;7.07;;;23.90;61.90;;;;;;4995513;28;20034;-80
2021/05/29 08:46:52;;;;;;;8.13;7.30;;;24.00;60.60;;;;;;4968187;28;20084;-79
2021/05/29 08:49:20;;;;;;;7.82;5.97;;;24.10;60.90;;;;;;4994557;28;20044;-80
2021/05/29 08:51:46;;;;;;;7.55;6.10;;;24.20;62.10;;;;;;4984462;28;20088;-81
2021/05/29 08:54:12;;;;;;;15.98;8.52;;;24.50;62.70;;;;;;4980749;28;20038;-81
2021/05/29 08:56:37;;;;;;;9.77;6.13;;;24.90;60.80;;;;;;4993319;28;20029;-80
2021/05/29 08:59:03;;;;;;;10.88;8.18;;;25.10;58.70;;;;;;4979850;28;20026;-81
2021/05/29 09:01:28;;;;;;;10.55;7.07;;;25.10;57.90;;;;;;4980198;28;20110;-76
2021/05/29 09:03:56;;;;;;;9.40;5.72;;;24.90;57.70;;;;;;4994921;28;20489;-77
2021/05/29 09:06:31;;;;;;;7.35;6.57;;;24.80;58.50;;;;;;4973338;28;20061;-81
2021/05/29 09:09:01;;;;;;;10.73;6.97;;;24.70;58.30;;;;;;5002318;28;20116;-81
2021/05/29 09:11:46;;;;;;;9.10;6.40;;;24.50;57.00;;;;;;4964404;28;20031;-82
2021/05/29 09:14:31;;;;;;;7.53;6.10;;;24.30;57.00;;;;;;4994606;28;20043;-78
2021/05/29 09:17:09;;;;;;;10.25;5.40;;;24.20;59.10;;;;;;4995943;28;20509;-79
2021/05/29 09:20:02;;;;;;;7.93;6.65;;;24.40;59.60;;;;;;4977100;28;20396;-78
2021/05/29 09:22:41;;;;;;;7.53;5.00;;;24.70;57.80;;;;;;4993942;28;20069;-81
2021/05/29 09:25:10;;;;;;;8.02;6.32;;;24.70;58.40;;;;;;5001296;28;20130;-82
2021/05/29 09:27:39;;;;;;;8.75;5.70;;;24.60;56.00;;;;;;4983611;28;20031;-82
2021/05/29 09:30:06;;;;;;;9.93;5.85;;;24.40;55.90;;;;;;4987900;28;20030;-83
2021/05/29 09:32:35;;;;;;;8.25;5.82;;;24.50;57.80;;;;;;4990770;28;20561;-82
2021/05/29 09:35:10;;;;;;;10.43;7.20;;;24.70;58.00;;;;;;4981385;28;20027;-82
2021/05/29 09:37:36;;;;;;;10.70;6.65;;;25.00;57.50;;;;;;4962064;28;20107;-82
2021/05/29 09:40:07;;;;;;;6.25;5.45;;;25.30;57.60;;;;;;4988789;28;20034;-83
2021/05/29 09:42:34;;;;;;;4.50;3.85;;;25.60;58.50;;;;;;4976406;28;20084;-83
2021/05/29 09:45:23;;;;;;;8.23;6.28;;;26.00;58.30;;;;;;4976579;28;20042;-83
2021/05/29 09:48:10;;;;;;;8.77;6.22;;;26.50;56.70;;;;;;4995268;28;20034;-83
2021/05/29 09:50:54;;;;;;;12.80;7.38;;;26.60;55.50;;;;;;4994723;28;20062;-82
2021/05/29 09:53:24;;;;;;;10.57;8.00;;;26.60;55.80;;;;;;4993912;28;20564;-82
2021/05/29 09:55:50;;;;;;;8.38;7.53;;;26.70;54.40;;;;;;4993256;28;20034;-84
2021/05/29 09:58:16;;;;;;;9.32;6.85;;;26.80;53.70;;;;;;4995183;28;20191;-83
2021/05/29 10:00:43;;;;;;;11.27;8.95;;;26.90;55.00;;;;;;4976755;28;20090;-84
2021/05/29 10:03:09;;;;;;;8.95;8.10;;;27.30;52.70;;;;;;4992262;28;20037;-83
2021/05/29 10:05:36;;;;;;;7.63;6.43;;;27.30;51.50;;;;;;4990574;28;20432;-82
2021/05/29 10:08:02;;;;;;;11.07;7.57;;;27.20;52.70;;;;;;4971352;28;20118;-81
2021/05/29 10:10:28;;;;;;;12.52;9.18;;;27.00;52.70;;;;;;4995488;28;20034;-83
2021/05/29 10:12:53;;;;;;;10.07;8.10;;;27.20;52.60;;;;;;4978374;28;20050;-83
2021/05/29 10:15:19;;;;;;;10.25;8.95;;;27.30;53.30;;;;;;4979103;28;20025;-82
2021/05/29 10:17:45;;;;;;;10.68;9.02;;;27.30;52.20;;;;;;4966700;28;20125;-83
2021/05/29 10:20:11;;;;;;;12.57;11.35;;;27.20;52.00;;;;;;4978661;28;20022;-81
2021/05/29 10:22:37;;;;;;;13.35;9.23;;;27.10;50.70;;;;;;4994306;28;20416;-81
2021/05/29 10:25:05;;;;;;;8.98;7.50;;;26.80;50.60;;;;;;4978086;28;20232;-82
2021/05/29 10:27:30;;;;;;;9.88;7.85;;;26.60;51.80;;;;;;4989268;28;20034;-83
2021/05/29 10:29:59;;;;;;;9.90;8.63;;;26.80;52.30;;;;;;4991552;28;20107;-81
2021/05/29 10:32:25;;;;;;;9.40;8.40;;;26.90;50.70;;;;;;4985643;28;20412;-80
2021/05/29 10:34:56;;;;;;;9.80;8.70;;;26.70;50.90;;;;;;4992621;28;20035;-82
2021/05/29 10:37:33;;;;;;;8.35;7.47;;;26.90;50.90;;;;;;4991624;28;20038;-81
2021/05/29 10:40:17;;;;;;;10.13;8.02;;;27.00;51.60;;;;;;4985596;28;20484;-82
2021/05/29 10:42:43;;;;;;;8.15;7.32;;;27.20;49.80;;;;;;4996982;28;20060;-84
2021/05/29 10:45:15;;;;;;;9.32;7.80;;;27.30;51.10;;;;;;4995391;28;20030;-83
2021/05/29 10:48:02;;;;;;;8.20;6.85;;;27.60;49.70;;;;;;5003677;28;20506;-81
2021/05/29 10:53:40;;;;;;;7.68;6.68;;;27.90;49.50;;;;;;4997259;28;20432;-81
2021/05/29 10:56:23;;;;;;;8.02;6.35;;;27.80;48.60;;;;;;4995981;28;20042;-83
2021/05/29 10:59:06;;;;;;;5.97;5.32;;;28.10;48.80;;;;;;4997975;28;20046;-81
2021/05/29 11:01:35;;;;;;;8.52;6.13;;;28.20;50.10;;;;;;4998526;28;20108;-82
2021/05/29 11:04:16;;;;;;;6.88;5.20;;;28.30;49.50;;;;;;4998480;28;20027;-82
2021/05/29 11:06:48;;;;;;;9.90;6.68;;;28.50;50.10;;;;;;4998144;28;20021;-81
2021/05/29 11:09:15;;;;;;;7.20;4.47;;;28.60;47.50;;;;;;4997886;28;20038;-82
2021/05/29 11:14:15;;;;;;;5.88;5.28;;;28.50;48.20;;;;;;4997434;28;20084;-79
2021/05/29 11:16:47;;;;;;;6.38;3.92;;;28.60;47.70;;;;;;4998568;28;20506;-81
2021/05/29 11:19:21;;;;;;;5.65;4.50;;;28.60;49.40;;;;;;4996468;28;20045;-81
2021/05/29 11:22:06;;;;;;;8.80;6.00;;;28.80;49.20;;;;;;4996682;28;20041;-81
2021/05/29 11:24:33;;;;;;;6.72;5.93;;;29.30;48.30;;;;;;4996935;28;20030;-81
2021/05/29 11:26:58;;;;;;;9.07;5.97;;;29.40;45.60;;;;;;4995957;28;20053;-81
2021/05/29 11:29:24;;;;;;;6.80;5.30;;;29.10;44.40;;;;;;4980991;28;20037;-81
2021/05/29 11:31:49;;;;;;;8.02;6.10;;;28.80;46.30;;;;;;4978967;28;20093;-82
2021/05/29 11:34:15;;;;;;;8.73;6.63;;;29.00;45.80;;;;;;4995540;28;20037;-82
2021/05/29 11:36:42;;;;;;;8.52;5.82;;;29.00;44.90;;;;;;4982517;28;20038;-81
2021/05/29 11:39:12;;;;;;;9.70;6.05;;;29.20;45.20;;;;;;4996047;28;20076;-81
2021/05/29 11:41:37;;;;;;;8.75;6.45;;;29.00;44.60;;;;;;4980063;28;20030;-81
2021/05/29 11:44:03;;;;;;;5.80;5.10;;;28.80;44.80;;;;;;4288767;28;10000452;-81
2021/05/29 11:46:30;;;;;;;12.88;5.55;;;28.50;45.30;;;;;;4960914;28;20439;-81
2021/05/29 11:49:05;;;;;;;8.38;6.65;;;28.50;45.80;;;;;;4988417;28;20480;-81
2021/05/29 11:51:36;;;;;;;8.43;6.47;;;28.80;45.50;;;;;;4991764;28;20401;-80
2021/05/29 11:54:16;;;;;;;6.10;5.07;;;28.90;44.30;;;;;;4964683;28;20366;-80
2021/05/29 11:56:46;;;;;;;6.65;5.35;;;28.90;45.10;;;;;;4958608;28;20023;-81
2021/05/29 11:59:15;;;;;;;5.55;4.75;;;29.10;44.80;;;;;;4993996;28;20026;-80
2021/05/29 12:01:43;;;;;;;6.20;4.38;;;29.20;44.90;;;;;;4996609;28;20088;-81
2021/05/29 12:04:11;;;;;;;8.18;4.60;;;29.00;44.10;;;;;;4992893;28;20497;-81
2021/05/29 12:06:48;;;;;;;5.68;4.82;;;28.90;43.10;;;;;;4965201;28;20026;-80
2021/05/29 12:09:15;;;;;;;7.05;4.60;;;28.90;44.30;;;;;;4992777;28;20022;-80
2021/05/29 12:11:45;;;;;;;6.28;4.45;;;28.90;43.60;;;;;;4987860;28;20445;-80
2021/05/29 12:14:15;;;;;;;7.75;5.28;;;29.10;44.50;;;;;;4975961;28;20058;-81
2021/05/29 12:16:45;;;;;;;8.55;5.75;;;29.30;44.00;;;;;;4995442;28;20476;-81
2021/05/29 12:19:29;;;;;;;5.63;4.32;;;29.30;43.90;;;;;;4992741;28;20035;-81
2021/05/29 12:21:55;;;;;;;7.13;3.83;;;29.40;45.60;;;;;;4996790;28;20073;-80
2021/05/29 12:24:22;;;;;;;5.18;3.45;;;29.50;44.60;;;;;;4985543;28;20042;-82
2021/05/29 12:26:48;;;;;;;3.97;3.67;;;29.40;44.90;;;;;;4985015;28;20040;-81
2021/05/29 12:29:17;;;;;;;6.55;4.43;;;29.40;45.30;;;;;;4980566;28;20413;-81
2021/05/29 12:31:47;;;;;;;5.13;4.05;;;29.40;43.70;;;;;;4960830;28;20030;-79
2021/05/29 12:34:13;;;;;;;5.97;5.43;;;29.50;44.00;;;;;;4991045;28;20034;-81
2021/05/29 12:36:54;;;;;;;6.60;4.45;;;29.60;42.40;;;;;;4982552;28;20038;-81
2021/05/29 12:39:20;;;;;;;5.47;4.45;;;29.80;42.90;;;;;;4980542;28;20497;-81
2021/05/29 12:41:45;;;;;;;6.00;5.38;;;29.90;43.10;;;;;;4982473;28;20033;-81
2021/05/29 12:44:11;;;;;;;4.60;3.80;;;30.00;41.20;;;;;;4979367;28;20554;-81
2021/05/29 12:46:37;;;;;;;4.72;4.30;;;30.10;42.00;;;;;;4982735;28;20410;-81
2021/05/29 12:49:13;;;;;;;7.00;4.60;;;30.10;41.10;;;;;;4980422;28;20036;-81
2021/05/29 12:51:46;;;;;;;5.70;5.10;;;30.10;41.80;;;;;;4982583;28;20038;-80
2021/05/29 12:54:12;;;;;;;7.10;5.85;;;30.20;40.80;;;;;;4999145;28;20050;-81
2021/05/29 12:56:49;;;;;;;5.93;4.90;;;30.20;40.50;;;;;;4998759;28;20054;-80
2021/05/29 12:59:17;;;;;;;6.78;4.63;;;30.20;40.90;;;;;;4975208;28;20034;-80
2021/05/29 13:02:01;;;;;;;7.18;5.03;;;30.10;41.80;;;;;;4996843;28;20030;-81
2021/05/29 13:07:30;;;;;;;5.88;4.30;;;29.80;41.30;;;;;;4982409;28;20041;-80
2021/05/29 13:12:31;;;;;;;30.75;7.65;;;30.00;41.50;;;;;;4980525;28;20034;-81